createdAt,value
2019-03-23T00:00:03.014Z,101380.73
2019-03-23T00:01:13.860Z,101378.02
2019-03-23T00:02:18.314Z,101382.11
2019-03-23T00:03:23.234Z,101380.76
2019-03-23T00:04:28.096Z,101386.63
2019-03-23T00:05:32.620Z,101381.67
2019-03-23T00:06:37.126Z,101387.16
2019-03-23T00:07:41.899Z,101383.55
2019-03-23T00:08:46.924Z,101385.37
2019-03-23T00:09:51.639Z,101387.19
2019-03-23T00:10:56.008Z,101395.30
2019-03-23T00:12:00.741Z,101382.70
2019-03-23T00:13:05.699Z,101384.97
2019-03-23T00:14:10.497Z,101386.37
2019-03-23T00:15:15.750Z,101390.97
2019-03-23T00:16:20.268Z,101388.26
2019-03-23T00:17:25.284Z,101388.75
2019-03-23T00:18:29.655Z,101389.23
2019-03-23T00:19:34.194Z,101387.00
2019-03-23T00:20:38.875Z,101389.73
2019-03-23T00:21:43.474Z,101390.69
2019-03-23T00:22:47.912Z,101392.50
2019-03-23T00:23:52.341Z,101387.12
2019-03-23T00:24:56.947Z,101392.98
2019-03-23T00:26:02.303Z,101395.29
2019-03-23T00:27:06.753Z,101392.16
2019-03-23T00:28:11.188Z,101390.44
2019-03-23T00:29:15.871Z,101394.05
2019-03-23T00:30:20.617Z,101394.55
2019-03-23T00:31:24.977Z,101393.20
2019-03-23T00:32:29.425Z,101390.09
2019-03-23T00:33:34.104Z,101392.36
2019-03-23T00:34:38.543Z,101385.20
2019-03-23T00:35:43.297Z,101388.39
2019-03-23T00:36:47.667Z,101388.88
2019-03-23T00:37:52.134Z,101387.10
2019-03-23T00:38:56.742Z,101384.89
2019-03-23T00:40:01.421Z,101386.70
2019-03-23T00:41:06.176Z,101388.55
2019-03-23T00:42:11.040Z,101388.57
2019-03-23T00:43:15.642Z,101384.08
2019-03-23T00:44:20.499Z,101383.68
2019-03-23T00:45:24.859Z,101380.17
2019-03-23T00:46:29.609Z,101375.74
2019-03-23T00:47:34.212Z,101375.77
2019-03-23T00:48:39.225Z,101378.56
2019-03-23T00:49:43.981Z,101379.48
2019-03-23T00:50:48.849Z,101381.75
2019-03-23T00:51:53.218Z,101383.59
2019-03-23T00:52:57.824Z,101380.97
2019-03-23T00:54:02.578Z,101380.97
2019-03-23T00:55:07.635Z,101386.84
2019-03-23T00:56:12.557Z,101390.45
2019-03-23T00:57:16.927Z,101385.52
2019-03-23T00:58:21.358Z,101394.97
2019-03-23T00:59:25.714Z,101390.51
2019-03-23T01:00:30.225Z,101385.56
2019-03-23T01:01:35.325Z,101395.02
2019-03-23T01:02:41.832Z,101382.43
2019-03-23T01:03:47.241Z,101386.05
2019-03-23T01:04:52.039Z,101393.27
2019-03-23T01:05:56.476Z,101386.14
2019-03-23T01:07:00.927Z,101387.48
2019-03-23T01:08:05.538Z,101388.86
2019-03-23T01:09:10.118Z,101386.65
2019-03-23T01:10:14.911Z,101383.08
2019-03-23T01:11:19.594Z,101384.92
2019-03-23T01:12:24.015Z,101389.89
2019-03-23T01:16:47.828Z,101391.77
2019-03-23T01:17:52.494Z,101382.34
2019-03-23T01:18:57.615Z,101385.75
2019-03-23T01:20:02.400Z,101384.45
2019-03-23T01:21:07.164Z,101383.13
2019-03-23T01:22:12.071Z,101377.72
2019-03-23T01:23:16.602Z,101378.61
2019-03-23T01:24:21.375Z,101376.37
2019-03-23T01:25:26.166Z,101371.40
2019-03-23T01:26:31.052Z,101379.06
2019-03-23T01:27:35.604Z,101374.19
2019-03-23T01:28:40.373Z,101372.40
2019-03-23T01:29:44.750Z,101368.40
2019-03-23T01:30:49.817Z,101368.87
2019-03-23T01:31:54.835Z,101373.36
2019-03-23T01:32:59.570Z,101370.23
2019-03-23T01:34:04.092Z,101367.98
2019-03-23T01:35:09.402Z,101379.68
2019-03-23T01:36:14.262Z,101368.05
2019-03-23T01:37:19.039Z,101369.88
2019-03-23T01:38:23.682Z,101369.90
2019-03-23T01:39:29.050Z,101378.00
2019-03-23T01:40:33.840Z,101374.89
2019-03-23T01:41:38.218Z,101375.34
2019-03-23T01:42:42.961Z,101375.41
2019-03-23T01:43:47.446Z,101371.84
2019-03-23T01:44:52.240Z,101375.42
2019-03-23T01:45:56.999Z,101378.59
2019-03-23T01:47:01.746Z,101380.85
2019-03-23T01:48:07.066Z,101379.06
2019-03-23T01:49:11.627Z,101373.66
2019-03-23T01:50:16.155Z,101378.17
2019-03-23T01:51:20.678Z,101380.00
2019-03-23T01:52:25.493Z,101375.55
2019-03-23T01:53:30.656Z,101371.98
2019-03-23T01:54:35.106Z,101375.58
2019-03-23T01:55:39.866Z,101375.59
2019-03-23T01:56:44.592Z,101375.59
2019-03-23T01:57:49.347Z,101380.11
2019-03-23T01:58:53.820Z,101379.67
2019-03-23T01:59:58.656Z,101374.29
2019-03-23T02:01:03.177Z,101376.10
2019-03-23T02:02:07.698Z,101378.86
2019-03-23T02:03:12.318Z,101372.56
2019-03-23T02:04:17.082Z,101366.75
2019-03-23T02:05:21.770Z,101365.42
2019-03-23T02:06:26.938Z,101370.39
2019-03-23T02:07:31.580Z,101367.21
2019-03-23T02:08:36.218Z,101371.73
2019-03-23T02:09:40.581Z,101365.02
2019-03-23T02:10:45.242Z,101366.88
2019-03-23T02:11:49.927Z,101366.92
2019-03-23T02:12:54.632Z,101368.72
2019-03-23T02:13:59.070Z,101369.19
2019-03-23T02:15:03.593Z,101368.36
2019-03-23T02:16:08.101Z,101370.62
2019-03-23T02:17:12.714Z,101375.16
2019-03-23T02:18:17.165Z,101365.73
2019-03-23T02:19:21.606Z,101369.80
2019-03-23T02:20:26.046Z,101374.38
2019-03-23T02:21:30.724Z,101363.17
2019-03-23T02:22:35.416Z,101370.38
2019-03-23T02:23:39.797Z,101369.05
2019-03-23T02:24:44.162Z,101367.70
2019-03-23T02:25:48.604Z,101370.39
2019-03-23T02:26:53.076Z,101368.64
2019-03-23T02:27:57.776Z,101375.84
2019-03-23T02:29:02.179Z,101372.20
2019-03-23T02:30:06.955Z,101370.45
2019-03-23T02:31:11.966Z,101365.97
2019-03-23T02:32:16.705Z,101363.27
2019-03-23T02:33:21.286Z,101358.33
2019-03-23T02:34:25.923Z,101365.07
2019-03-23T02:35:30.414Z,101357.88
2019-03-23T02:36:34.968Z,101362.39
2019-03-23T02:37:39.812Z,101366.42
2019-03-23T02:38:44.471Z,101361.50
2019-03-23T02:39:48.916Z,101365.11
2019-03-23T02:40:53.374Z,101368.72
2019-03-23T02:41:58.114Z,101365.19
2019-03-23T02:43:02.648Z,101363.41
2019-03-23T02:44:07.168Z,101366.09
2019-03-23T02:45:12.568Z,101367.92
2019-03-23T02:46:16.947Z,101364.79
2019-03-23T02:47:22.137Z,101363.44
2019-03-23T02:48:26.674Z,101362.52
2019-03-23T02:49:31.125Z,101362.97
2019-03-23T02:50:35.849Z,101356.23
2019-03-23T02:51:40.263Z,101362.53
2019-03-23T02:52:44.630Z,101366.58
2019-03-23T02:53:49.337Z,101363.05
2019-03-23T02:54:54.104Z,101361.20
2019-03-23T02:55:59.111Z,101365.73
2019-03-23T02:57:03.725Z,101360.37
2019-03-23T02:58:08.463Z,101362.63
2019-03-23T02:59:12.977Z,101366.67
2019-03-23T03:00:17.617Z,101360.41
2019-03-23T03:01:22.309Z,101361.77
2019-03-23T03:02:27.020Z,101365.84
2019-03-23T03:03:31.720Z,101362.28
2019-03-23T03:04:36.252Z,101362.73
2019-03-23T03:05:40.701Z,101360.95
2019-03-23T03:06:45.491Z,101369.48
2019-03-23T03:07:50.179Z,101374.89
2019-03-23T03:08:54.877Z,101369.97
2019-03-23T03:09:59.398Z,101373.58
2019-03-23T03:11:04.539Z,101369.98
2019-03-23T03:12:08.977Z,101371.36
2019-03-23T03:13:13.437Z,101375.02
2019-03-23T03:14:17.797Z,101371.86
2019-03-23T03:15:22.491Z,101373.69
2019-03-23T03:16:26.929Z,101374.14
2019-03-23T03:17:31.556Z,101375.07
2019-03-23T03:18:36.005Z,101380.45
2019-03-23T03:19:40.618Z,101370.19
2019-03-23T03:20:45.230Z,101376.94
2019-03-23T03:21:49.600Z,101376.05
2019-03-23T03:22:54.367Z,101380.55
2019-03-23T03:23:58.745Z,101382.80
2019-03-23T03:25:03.427Z,101377.43
2019-03-23T03:26:07.944Z,101372.95
2019-03-23T03:27:12.378Z,101369.81
2019-03-23T03:28:17.242Z,101376.16
2019-03-23T03:29:21.625Z,101373.92
2019-03-23T03:30:25.992Z,101370.80
2019-03-23T03:31:30.383Z,101373.05
2019-03-23T03:32:35.147Z,101374.40
2019-03-23T03:33:39.747Z,101367.68
2019-03-23T03:34:44.121Z,101368.16
2019-03-23T03:35:48.665Z,101365.06
2019-03-23T03:36:53.399Z,101367.77
2019-03-23T03:37:58.310Z,101366.44
2019-03-23T03:39:03.286Z,101365.54
2019-03-23T03:40:08.048Z,101365.57
2019-03-23T03:41:12.499Z,101363.82
2019-03-23T03:42:16.961Z,101362.03
2019-03-23T03:43:21.692Z,101363.40
2019-03-23T03:44:26.549Z,101367.00
2019-03-23T03:45:31.050Z,101362.97
2019-03-23T03:46:35.569Z,101368.36
2019-03-23T03:47:41.415Z,101371.06
2019-03-23T03:48:46.118Z,101366.58
2019-03-23T03:49:51.045Z,101367.03
2019-03-23T03:50:56.128Z,101363.45
2019-03-23T03:52:00.580Z,101359.00
2019-03-23T03:53:05.158Z,101360.34
2019-03-23T03:54:09.541Z,101363.95
2019-03-23T03:55:14.001Z,101357.67
2019-03-23T03:56:18.446Z,101360.83
2019-03-23T03:57:23.133Z,101355.90
2019-03-23T03:58:27.596Z,101355.90
2019-03-23T03:59:32.427Z,101356.80
2019-03-23T04:00:37.033Z,101352.33
2019-03-23T04:01:41.474Z,101357.72
2019-03-23T04:02:46.308Z,101354.59
2019-03-23T04:03:50.753Z,101356.00
2019-03-23T04:04:55.790Z,101354.66
2019-03-23T04:06:00.554Z,101351.09
2019-03-23T04:07:05.382Z,101352.91
2019-03-23T04:08:11.880Z,101353.39
2019-03-23T04:09:16.031Z,101355.22
2019-03-23T04:10:20.480Z,101354.35
2019-03-23T04:11:25.203Z,101356.15
2019-03-23T04:12:29.642Z,101359.75
2019-03-23T04:13:34.519Z,101357.12
2019-03-23T04:14:38.909Z,101361.60
2019-03-23T04:15:43.367Z,101365.20
2019-03-23T04:16:48.114Z,101363.41
2019-03-23T04:17:52.686Z,101367.92
2019-03-23T04:18:57.072Z,101374.22
2019-03-23T04:20:01.525Z,101368.39
2019-03-23T04:21:06.509Z,101369.33
2019-03-23T04:22:10.954Z,101374.73
2019-03-23T04:23:15.356Z,101375.18
2019-03-23T04:24:19.895Z,101374.29
2019-03-23T04:25:24.270Z,101375.20
2019-03-23T04:26:28.656Z,101372.08
2019-03-23T04:27:33.441Z,101371.19
2019-03-23T04:28:38.138Z,101366.75
2019-03-23T04:29:42.597Z,101381.12
2019-03-23T04:30:47.750Z,101378.42
2019-03-23T04:31:52.182Z,101381.14
2019-03-23T04:32:56.934Z,101382.04
2019-03-23T04:34:01.722Z,101379.36
2019-03-23T04:35:07.674Z,101391.93
2019-03-23T04:36:12.110Z,101383.90
2019-03-23T04:37:16.789Z,101387.95
2019-03-23T04:38:22.960Z,101383.02
2019-03-23T04:39:27.661Z,101381.69
2019-03-23T04:40:32.019Z,101381.25
2019-03-23T04:41:36.464Z,101387.98
2019-03-23T04:42:40.828Z,101380.86
2019-03-23T04:43:45.430Z,101383.55
2019-03-23T04:44:49.883Z,101388.49
2019-03-23T04:45:55.150Z,101385.38
2019-03-23T04:46:59.760Z,101385.39
2019-03-23T04:48:04.455Z,101387.19
2019-03-23T04:49:08.903Z,101384.50
2019-03-23T04:50:13.850Z,101385.89
2019-03-23T04:51:18.687Z,101387.70
2019-03-23T04:52:23.114Z,101386.81
2019-03-23T04:53:27.979Z,101389.98
2019-03-23T04:54:32.362Z,101385.98
2019-03-23T04:55:37.047Z,101385.55
2019-03-23T04:56:41.416Z,101387.34
2019-03-23T04:57:45.855Z,101391.84
2019-03-23T04:58:50.216Z,101387.42
2019-03-23T04:59:54.666Z,101388.32
2019-03-23T05:00:59.280Z,101394.16
2019-03-23T05:02:03.851Z,101393.28
2019-03-23T05:03:08.542Z,101391.94
2019-03-23T05:04:13.598Z,101396.02
2019-03-23T05:05:18.106Z,101392.89
2019-03-23T05:06:22.558Z,101392.00
2019-03-23T05:07:27.052Z,101399.64
2019-03-23T05:08:33.659Z,101401.88
2019-03-23T05:09:37.771Z,101399.19
2019-03-23T05:10:42.216Z,101403.69
2019-03-23T05:11:47.022Z,101404.62
2019-03-23T05:12:51.706Z,101398.36
2019-03-23T05:13:56.367Z,101402.39
2019-03-23T05:15:00.836Z,101405.08
2019-03-23T05:16:05.353Z,101406.43
2019-03-23T05:17:09.805Z,101410.02
2019-03-23T05:18:14.483Z,101415.41
2019-03-23T05:19:19.175Z,101412.27
2019-03-23T05:20:31.235Z,101413.17
2019-03-23T05:21:35.605Z,101411.38
2019-03-23T05:22:40.034Z,101412.27
2019-03-23T05:23:45.865Z,101410.03
2019-03-23T05:24:50.382Z,101409.13
2019-03-23T05:25:54.752Z,101411.36
2019-03-23T05:26:59.113Z,101416.74
2019-03-23T05:28:03.632Z,101412.70
2019-03-23T05:29:08.639Z,101411.35
2019-03-23T05:30:13.188Z,101414.04
2019-03-23T05:31:18.421Z,101413.11
2019-03-23T05:32:23.617Z,101408.17
2019-03-23T05:33:28.057Z,101410.41
2019-03-23T05:34:32.446Z,101411.31
2019-03-23T05:35:36.944Z,101414.00
2019-03-23T05:36:41.467Z,101411.31
2019-03-23T05:37:46.338Z,101415.34
2019-03-23T05:38:51.195Z,101415.34
2019-03-23T05:39:55.659Z,101410.41
2019-03-23T05:41:00.363Z,101414.00
2019-03-23T05:42:05.174Z,101414.45
2019-03-23T05:44:35.366Z,101415.78
2019-03-23T05:45:40.083Z,101414.89
2019-03-23T05:46:44.454Z,101414.00
2019-03-23T05:47:48.919Z,101413.54
2019-03-23T05:48:53.925Z,101417.13
2019-03-23T05:49:58.401Z,101421.16
2019-03-23T05:51:02.801Z,101418.47
2019-03-23T05:52:07.385Z,101425.19
2019-03-23T05:53:11.895Z,101426.52
2019-03-23T05:54:16.266Z,101427.38
2019-03-23T05:55:20.715Z,101421.58
2019-03-23T05:56:25.651Z,101426.03
2019-03-23T05:57:30.084Z,101425.12
2019-03-23T05:58:34.840Z,101426.97
2019-03-23T05:59:39.449Z,101422.48
2019-03-23T06:00:43.891Z,101424.28
2019-03-23T06:01:48.259Z,101416.66
2019-03-23T06:02:52.694Z,101420.65
2019-03-23T06:03:57.311Z,101419.30
2019-03-23T06:05:01.760Z,101418.40
2019-03-23T06:06:06.274Z,101421.08
2019-03-23T06:07:10.649Z,101422.87
2019-03-23T06:08:15.668Z,101424.20
2019-03-23T06:09:20.294Z,101426.88
2019-03-23T06:10:24.917Z,101431.77
2019-03-23T06:11:29.538Z,101417.41
2019-03-23T06:12:34.973Z,101425.03
2019-03-23T06:13:39.431Z,101422.33
2019-03-23T06:14:43.912Z,101419.17
2019-03-23T06:15:48.311Z,101417.33
2019-03-23T06:16:52.990Z,101420.92
2019-03-23T06:17:57.358Z,101424.94
2019-03-23T06:19:01.811Z,101427.19
2019-03-23T06:20:06.919Z,101428.96
2019-03-23T06:21:11.374Z,101426.71
2019-03-23T06:22:16.243Z,101423.97
2019-03-23T06:23:20.688Z,101428.45
2019-03-23T06:24:25.309Z,101425.30
2019-03-23T06:25:29.931Z,101423.04
2019-03-23T06:26:34.707Z,101423.42
2019-03-23T06:27:39.229Z,101426.55
2019-03-23T06:28:43.594Z,101422.88
2019-03-23T06:29:47.963Z,101425.98
2019-03-23T06:30:52.412Z,101419.17
2019-03-23T06:31:56.938Z,101424.45
2019-03-23T06:33:01.680Z,101426.14
2019-03-23T06:34:06.544Z,101423.34
2019-03-23T06:35:11.425Z,101423.24
2019-03-23T06:36:16.216Z,101419.53
2019-03-23T06:37:20.659Z,101421.22
2019-03-23T06:38:25.424Z,101418.88
2019-03-23T06:39:29.931Z,101423.26
2019-03-23T06:40:34.736Z,101416.87
2019-03-23T06:41:39.294Z,101422.20
2019-03-23T06:42:43.751Z,101422.11
2019-03-23T06:43:49.030Z,101423.41
2019-03-23T06:44:53.405Z,101420.19
2019-03-23T06:45:58.152Z,101417.89
2019-03-23T06:47:03.014Z,101413.33
2019-03-23T06:48:07.610Z,101416.89
2019-03-23T06:49:12.570Z,101413.25
2019-03-23T06:50:17.116Z,101416.84
2019-03-23T06:51:21.824Z,101416.84
2019-03-23T06:52:26.643Z,101421.32
2019-03-23T06:53:31.102Z,101412.79
2019-03-23T06:54:35.567Z,101410.97
2019-03-23T06:55:40.227Z,101416.33
2019-03-23T06:56:44.924Z,101414.06
2019-03-23T06:57:49.442Z,101411.83
2019-03-23T06:58:54.483Z,101419.45
2019-03-23T06:59:59.244Z,101417.22
2019-03-23T07:01:03.810Z,101421.25
2019-03-23T07:02:08.306Z,101417.67
2019-03-23T07:03:13.133Z,101414.09
2019-03-23T07:04:17.705Z,101415.45
2019-03-23T07:05:22.252Z,101412.77
2019-03-23T07:06:27.050Z,101419.53
2019-03-23T07:07:31.420Z,101408.80
2019-03-23T07:08:36.036Z,101416.03
2019-03-23T07:09:40.483Z,101416.48
2019-03-23T07:10:45.012Z,101429.96
2019-03-23T07:11:49.712Z,101425.53
2019-03-23T07:12:54.151Z,101428.68
2019-03-23T07:13:58.518Z,101424.20
2019-03-23T07:15:03.052Z,101426.02
2019-03-23T07:16:07.752Z,101417.49
2019-03-23T07:17:12.296Z,101422.45
2019-03-23T07:18:17.363Z,101421.09
2019-03-23T07:19:22.071Z,101429.63
2019-03-23T07:20:26.583Z,101422.89
2019-03-23T07:21:31.290Z,101424.67
2019-03-23T07:22:36.074Z,101425.55
2019-03-23T07:23:40.611Z,101433.56
2019-03-23T07:24:45.229Z,101427.70
2019-03-23T07:25:50.023Z,101425.44
2019-03-23T07:26:54.558Z,101427.63
2019-03-23T07:27:59.376Z,101426.72
2019-03-23T07:29:04.296Z,101429.83
2019-03-23T07:30:10.818Z,101429.38
2019-03-23T07:31:15.558Z,101431.16
2019-03-23T07:32:20.092Z,101431.55
2019-03-23T07:33:24.615Z,101434.66
2019-03-23T07:34:29.393Z,101432.84
2019-03-23T07:35:34.636Z,101438.23
2019-03-23T07:36:39.424Z,101435.06
2019-03-23T07:37:43.947Z,101435.95
2019-03-23T07:38:48.687Z,101438.20
2019-03-23T07:39:53.064Z,101438.20
2019-03-23T07:40:57.804Z,101439.95
2019-03-23T07:42:02.665Z,101436.77
2019-03-23T07:43:07.029Z,101444.39
2019-03-23T07:44:11.480Z,101442.56
2019-03-23T07:45:16.697Z,101438.02
2019-03-23T07:46:21.644Z,101441.58
2019-03-23T07:47:26.160Z,101446.48
2019-03-23T07:48:30.603Z,101442.36
2019-03-23T07:49:35.301Z,101439.64
2019-03-23T07:50:39.753Z,101435.55
2019-03-23T07:51:44.194Z,101439.96
2019-03-23T07:52:48.566Z,101437.24
2019-03-23T07:53:53.246Z,101439.48
2019-03-23T07:55:00.576Z,101442.14
2019-03-23T07:56:05.204Z,101445.22
2019-03-23T07:57:09.653Z,101438.43
2019-03-23T07:58:14.022Z,101435.61
2019-03-23T07:59:18.392Z,101440.08
2019-03-23T08:00:23.015Z,101439.59
2019-03-23T08:01:27.397Z,101437.70
2019-03-23T08:02:32.012Z,101444.44
2019-03-23T08:03:36.458Z,101438.02
2019-03-23T08:04:41.280Z,101434.81
2019-03-23T08:05:45.613Z,101436.14
2019-03-23T08:06:50.224Z,101437.47
2019-03-23T08:07:55.163Z,101435.12
2019-03-23T08:08:59.777Z,101436.38
2019-03-23T08:10:04.226Z,101431.78
2019-03-23T08:11:08.846Z,101437.52
2019-03-23T08:12:13.291Z,101439.69
2019-03-23T08:13:18.044Z,101433.72
2019-03-23T08:14:22.685Z,101432.72
2019-03-23T08:15:27.381Z,101433.98
2019-03-23T08:16:31.841Z,101432.52
2019-03-23T08:17:36.987Z,101428.83
2019-03-23T08:18:42.314Z,101432.28
2019-03-23T08:19:47.145Z,101422.70
2019-03-23T08:20:51.594Z,101431.16
2019-03-23T08:21:56.471Z,101427.45
2019-03-23T08:23:01.067Z,101433.63
2019-03-23T08:24:05.761Z,101426.79
2019-03-23T08:25:10.221Z,101394.66
2019-03-23T08:26:14.693Z,101425.69
2019-03-23T08:27:19.394Z,101428.25
2019-03-23T08:28:23.899Z,101427.73
2019-03-23T08:29:28.775Z,101421.30
2019-03-23T08:30:33.270Z,101421.64
2019-03-23T08:31:38.207Z,101418.38
2019-03-23T08:32:42.880Z,101417.37
2019-03-23T08:33:47.361Z,101415.46
2019-03-23T08:34:51.856Z,101411.70
2019-03-23T08:35:56.393Z,101417.88
2019-03-23T08:37:02.147Z,101416.89
2019-03-23T08:38:06.701Z,101415.86
2019-03-23T08:39:11.161Z,101418.94
2019-03-23T08:40:15.686Z,101420.59
2019-03-23T08:41:20.306Z,101416.42
2019-03-23T08:42:25.317Z,101417.18
2019-03-23T08:43:29.952Z,101410.73
2019-03-23T08:44:34.477Z,101414.66
2019-03-23T08:45:38.975Z,101413.60
2019-03-23T08:46:43.448Z,101413.47
2019-03-23T08:47:47.975Z,101415.21
2019-03-23T08:48:52.534Z,101416.92
2019-03-23T08:49:59.601Z,101414.08
2019-03-23T08:51:03.562Z,101413.53
2019-03-23T08:52:08.413Z,101412.50
2019-03-23T08:53:12.788Z,101412.39
2019-03-23T08:54:17.238Z,101414.50
2019-03-23T08:55:22.132Z,101412.53
2019-03-23T08:56:26.727Z,101411.49
2019-03-23T08:57:31.385Z,101415.38
2019-03-23T08:58:33.787Z,101416.12
2019-03-23T08:59:38.158Z,101413.25
2019-03-23T09:00:42.535Z,101419.41
2019-03-23T09:01:46.979Z,101409.77
2019-03-23T09:02:51.946Z,101406.95
2019-03-23T09:03:56.672Z,101409.50
2019-03-23T09:05:01.948Z,101412.95
2019-03-23T09:06:06.708Z,101411.43
2019-03-23T09:07:11.614Z,101402.67
2019-03-23T09:08:18.462Z,101410.14
2019-03-23T09:09:22.233Z,101411.38
2019-03-23T09:10:27.021Z,101409.81
2019-03-23T09:11:31.638Z,101406.90
2019-03-23T09:12:36.422Z,101409.41
2019-03-23T09:13:41.085Z,101414.23
2019-03-23T09:14:45.415Z,101406.41
2019-03-23T09:15:49.874Z,101408.52
2019-03-23T09:16:54.500Z,101409.70
2019-03-23T09:17:58.891Z,101402.79
2019-03-23T09:19:03.420Z,101403.98
2019-03-23T09:20:09.024Z,101406.06
2019-03-23T09:21:13.795Z,101400.49
2019-03-23T09:22:18.819Z,101402.15
2019-03-23T09:23:23.672Z,101401.96
2019-03-23T09:24:28.134Z,101401.32
2019-03-23T09:25:32.590Z,101394.83
2019-03-23T09:26:37.053Z,101394.64
2019-03-23T09:27:41.780Z,101386.36
2019-03-23T09:28:46.512Z,101398.86
2019-03-23T09:29:51.304Z,101393.30
2019-03-23T09:30:55.762Z,101390.44
2019-03-23T09:32:00.509Z,101394.75
2019-03-23T09:33:05.018Z,101395.94
2019-03-23T09:34:09.473Z,101398.45
2019-03-23T09:35:14.044Z,101402.85
2019-03-23T09:36:23.059Z,101399.52
2019-03-23T09:37:25.402Z,101397.03
2019-03-23T09:38:30.304Z,101390.05
2019-03-23T09:39:35.229Z,101392.57
2019-03-23T09:40:40.060Z,101393.27
2019-03-23T09:41:44.813Z,101383.98
2019-03-23T09:42:49.350Z,101386.97
2019-03-23T09:43:53.855Z,101385.36
2019-03-23T09:44:58.392Z,101387.84
2019-03-23T09:46:05.926Z,101383.56
2019-03-23T09:47:10.712Z,101380.58
2019-03-23T09:48:15.176Z,101380.80
2019-03-23T09:49:22.015Z,101379.19
2019-03-23T09:50:25.964Z,101380.39
2019-03-23T09:51:31.114Z,101371.08
2019-03-23T09:52:35.944Z,101345.48
2019-03-23T09:53:40.627Z,101372.02
2019-03-23T09:54:45.485Z,101376.31
2019-03-23T09:55:50.173Z,101371.08
2019-03-23T09:56:55.245Z,101368.56
2019-03-23T09:58:00.112Z,101374.67
2019-03-23T09:59:04.653Z,101372.22
2019-03-23T10:00:09.536Z,101371.51
2019-03-23T10:01:14.157Z,101367.25
2019-03-23T10:02:18.566Z,101357.98
2019-03-23T10:03:23.085Z,101362.20
2019-03-23T10:04:28.824Z,101361.55
2019-03-23T10:05:33.514Z,101361.34
2019-03-23T10:06:38.140Z,101355.72
2019-03-23T10:07:42.513Z,101356.80
2019-03-23T10:08:46.904Z,101354.74
2019-03-23T10:09:51.281Z,101354.09
2019-03-23T10:10:55.655Z,101358.84
2019-03-23T10:12:00.430Z,101355.05
2019-03-23T10:13:05.459Z,101360.75
2019-03-23T10:14:10.022Z,101354.12
2019-03-23T10:15:14.614Z,101355.30
2019-03-23T10:16:19.082Z,101355.08
2019-03-23T10:17:23.643Z,101352.95
2019-03-23T10:18:28.180Z,101351.39
2019-03-23T10:19:32.885Z,101345.23
2019-03-23T10:20:37.340Z,101343.20
2019-03-23T10:21:41.796Z,101344.34
2019-03-23T10:22:46.316Z,101341.89
2019-03-23T10:23:51.141Z,101340.77
2019-03-23T10:24:55.949Z,101339.21
2019-03-23T10:26:01.616Z,101336.28
2019-03-23T10:27:06.489Z,101338.77
2019-03-23T10:28:11.011Z,101340.83
2019-03-23T10:29:18.809Z,101338.34
2019-03-23T10:30:24.612Z,101341.27
2019-03-23T10:31:29.765Z,101344.17
2019-03-23T10:32:34.687Z,101342.58
2019-03-23T10:33:39.081Z,101343.26
2019-03-23T10:34:43.594Z,101339.40
2019-03-23T10:35:48.406Z,101337.34
2019-03-23T10:36:52.821Z,101342.02
2019-03-23T10:37:57.472Z,101342.05
2019-03-23T10:39:01.916Z,101339.62
2019-03-23T10:40:07.963Z,101341.73
2019-03-23T10:41:12.647Z,101340.59
2019-03-23T10:42:17.859Z,101341.81
2019-03-23T10:43:22.252Z,101333.89
2019-03-23T10:44:27.032Z,101335.48
2019-03-23T10:45:31.591Z,101337.12
2019-03-23T10:46:36.444Z,101337.75
2019-03-23T10:47:41.546Z,101337.02
2019-03-23T10:48:46.796Z,101344.64
2019-03-23T10:49:51.210Z,101334.89
2019-03-23T10:50:55.684Z,101333.45
2019-03-23T10:52:00.065Z,101331.45
2019-03-23T10:53:04.440Z,101331.27
2019-03-23T10:54:08.830Z,101329.76
2019-03-23T10:55:13.370Z,101334.11
2019-03-23T10:56:18.139Z,101325.17
2019-03-23T10:57:22.597Z,101329.50
2019-03-23T10:58:27.969Z,101329.83
2019-03-23T10:59:32.437Z,101332.15
2019-03-23T11:00:36.893Z,101326.53
2019-03-23T11:01:41.908Z,101325.30
2019-03-23T11:02:46.724Z,101321.93
2019-03-23T11:03:51.194Z,101323.52
2019-03-23T11:04:55.838Z,101318.45
2019-03-23T11:06:03.024Z,101319.26
2019-03-23T11:07:07.480Z,101322.20
2019-03-23T11:08:12.139Z,101319.53
2019-03-23T11:09:16.874Z,101318.73
2019-03-23T11:10:21.596Z,101317.66
2019-03-23T11:11:26.242Z,101313.48
2019-03-23T11:12:30.990Z,101308.98
2019-03-23T11:13:35.402Z,101309.91
2019-03-23T11:14:40.134Z,101314.95
2019-03-23T11:15:44.603Z,101312.64
2019-03-23T11:16:49.096Z,101313.45
2019-03-23T11:17:54.064Z,101311.73
2019-03-23T11:18:58.476Z,101312.86
2019-03-23T11:20:03.360Z,101312.09
2019-03-23T11:21:07.946Z,101309.28
2019-03-23T11:22:12.754Z,101311.45
2019-03-23T11:23:17.231Z,101310.41
2019-03-23T11:24:22.016Z,101314.52
2019-03-23T11:25:26.579Z,101314.75
2019-03-23T11:26:31.501Z,101312.70
2019-03-23T11:27:36.220Z,101306.74
2019-03-23T11:28:41.395Z,101313.91
2019-03-23T11:29:46.671Z,101308.47
2019-03-23T11:30:51.478Z,101305.67
2019-03-23T11:31:55.915Z,101304.42
2019-03-23T11:33:00.447Z,101299.74
2019-03-23T11:34:05.425Z,101300.23
2019-03-23T11:35:10.838Z,101299.11
2019-03-23T11:36:15.513Z,101301.74
2019-03-23T11:37:20.469Z,101307.50
2019-03-23T11:38:24.875Z,101306.45
2019-03-23T11:39:29.282Z,101300.99
2019-03-23T11:40:34.260Z,101300.91
2019-03-23T11:41:39.036Z,101309.30
2019-03-23T11:42:49.768Z,101299.39
2019-03-23T11:43:49.815Z,101302.61
2019-03-23T11:44:54.374Z,101297.76
2019-03-23T11:45:59.087Z,101296.12
2019-03-23T11:47:03.464Z,101301.30
2019-03-23T11:48:07.888Z,101293.38
2019-03-23T11:49:12.721Z,101302.59
2019-03-23T11:50:17.425Z,101301.40
2019-03-23T11:51:22.087Z,101296.80
2019-03-23T11:52:26.545Z,101301.81
2019-03-23T11:53:30.934Z,101300.86
2019-03-23T11:54:35.647Z,101296.83
2019-03-23T11:55:40.614Z,101297.53
2019-03-23T11:56:45.151Z,101296.36
2019-03-23T11:57:49.907Z,101297.84
2019-03-23T11:58:54.365Z,101295.78
2019-03-23T11:59:58.860Z,101294.23
2019-03-23T12:01:03.776Z,101296.98
2019-03-23T12:02:08.157Z,101291.19
2019-03-23T12:03:12.855Z,101298.13
2019-03-23T12:04:17.385Z,101291.49
2019-03-23T12:05:21.777Z,101291.49
2019-03-23T12:06:26.184Z,101293.17
2019-03-23T12:07:30.965Z,101300.03
2019-03-23T12:08:35.345Z,101298.17
2019-03-23T12:09:39.798Z,101301.11
2019-03-23T12:10:44.326Z,101293.36
2019-03-23T12:11:48.963Z,101296.98
2019-03-23T12:12:53.510Z,101288.67
2019-03-23T12:13:58.402Z,101292.97
2019-03-23T12:15:02.961Z,101293.27
2019-03-23T12:16:07.412Z,101293.48
2019-03-23T12:17:12.108Z,101291.50
2019-03-23T12:18:16.818Z,101290.92
2019-03-23T12:19:21.448Z,101288.97
2019-03-23T12:20:25.844Z,101287.41
2019-03-23T12:21:30.386Z,101284.05
2019-03-23T12:22:35.271Z,101289.17